Aviation Digital Data Service (ADDS)

Output produced by TAFs form (0509 UTC 20 December 2014)
found at http://www.aviationweather.gov/adds/tafs/
 
KSBY 192337Z 2000/2024 32004KT P6SM SCT250 
     FM201700 34003KT P6SM BKN100